sensor_id;sensor_type;location;lat;lon;timestamp;P1;durP1;ratioP1;P2;durP2;ratioP2
81006;SDS011;70472;47.592;17.640;2023-12-28T00:00:19;11.33;;;11.33;;
81006;SDS011;70472;47.592;17.640;2023-12-28T00:00:52;11.40;;;11.40;;
81006;SDS011;70472;47.592;17.640;2023-12-28T00:01:24;11.73;;;11.73;;
81006;SDS011;70472;47.592;17.640;2023-12-28T00:01:57;12.23;;;12.23;;
81006;SDS011;70472;47.592;17.640;2023-12-28T00:02:30;11.67;;;11.67;;
81006;SDS011;70472;47.592;17.640;2023-12-28T00:03:02;11.53;;;11.53;;
81006;SDS011;70472;47.592;17.640;2023-12-28T00:03:35;11.37;;;11.37;;
81006;SDS011;70472;47.592;17.640;2023-12-28T00:04:08;11.03;;;11.03;;
81006;SDS011;70472;47.592;17.640;2023-12-28T00:04:41;11.33;;;11.33;;
81006;SDS011;70472;47.592;17.640;2023-12-28T00:05:13;11.60;;;11.60;;
81006;SDS011;70472;47.592;17.640;2023-12-28T00:05:46;11.30;;;11.30;;
81006;SDS011;70472;47.592;17.640;2023-12-28T00:06:19;11.63;;;11.63;;
81006;SDS011;70472;47.592;17.640;2023-12-28T00:06:51;12.13;;;12.13;;
81006;SDS011;70472;47.592;17.640;2023-12-28T00:07:24;11.70;;;11.70;;
81006;SDS011;70472;47.592;17.640;2023-12-28T00:07:56;11.40;;;11.40;;
81006;SDS011;70472;47.592;17.640;2023-12-28T00:08:29;11.37;;;11.37;;
81006;SDS011;70472;47.592;17.640;2023-12-28T00:09:02;11.13;;;11.13;;
81006;SDS011;70472;47.592;17.640;2023-12-28T00:09:35;10.70;;;10.70;;
81006;SDS011;70472;47.592;17.640;2023-12-28T00:10:07;10.57;;;10.57;;
81006;SDS011;70472;47.592;17.640;2023-12-28T00:10:40;10.83;;;10.83;;
81006;SDS011;70472;47.592;17.640;2023-12-28T00:11:13;11.07;;;11.07;;
81006;SDS011;70472;47.592;17.640;2023-12-28T00:11:45;12.13;;;12.13;;
81006;SDS011;70472;47.592;17.640;2023-12-28T00:12:18;11.73;;;11.73;;
81006;SDS011;70472;47.592;17.640;2023-12-28T00:12:51;11.77;;;11.77;;
81006;SDS011;70472;47.592;17.640;2023-12-28T00:13:23;12.07;;;12.07;;
81006;SDS011;70472;47.592;17.640;2023-12-28T00:13:56;11.70;;;11.70;;
81006;SDS011;70472;47.592;17.640;2023-12-28T00:14:28;12.40;;;12.40;;
81006;SDS011;70472;47.592;17.640;2023-12-28T00:15:01;12.10;;;12.10;;
81006;SDS011;70472;47.592;17.640;2023-12-28T00:15:34;11.87;;;11.87;;
81006;SDS011;70472;47.592;17.640;2023-12-28T00:16:06;11.43;;;11.43;;
81006;SDS011;70472;47.592;17.640;2023-12-28T00:16:39;11.60;;;11.60;;
81006;SDS011;70472;47.592;17.640;2023-12-28T00:17:11;11.57;;;11.57;;
81006;SDS011;70472;47.592;17.640;2023-12-28T00:17:44;12.17;;;12.17;;
81006;SDS011;70472;47.592;17.640;2023-12-28T00:18:16;11.27;;;11.27;;
81006;SDS011;70472;47.592;17.640;2023-12-28T00:18:50;11.67;;;11.67;;
81006;SDS011;70472;47.592;17.640;2023-12-28T00:19:22;11.27;;;11.27;;
81006;SDS011;70472;47.592;17.640;2023-12-28T00:19:55;11.30;;;11.30;;
81006;SDS011;70472;47.592;17.640;2023-12-28T00:20:28;11.40;;;11.40;;
81006;SDS011;70472;47.592;17.640;2023-12-28T00:21:00;11.47;;;11.47;;
81006;SDS011;70472;47.592;17.640;2023-12-28T00:21:33;11.63;;;11.63;;
81006;SDS011;70472;47.592;17.640;2023-12-28T00:22:05;12.00;;;12.00;;
81006;SDS011;70472;47.592;17.640;2023-12-28T00:22:38;11.47;;;11.47;;
81006;SDS011;70472;47.592;17.640;2023-12-28T00:23:10;10.77;;;10.77;;
81006;SDS011;70472;47.592;17.640;2023-12-28T00:23:43;10.47;;;10.47;;
81006;SDS011;70472;47.592;17.640;2023-12-28T00:24:15;10.97;;;10.97;;
81006;SDS011;70472;47.592;17.640;2023-12-28T00:24:48;10.90;;;10.90;;
81006;SDS011;70472;47.592;17.640;2023-12-28T00:25:20;12.00;;;12.00;;
81006;SDS011;70472;47.592;17.640;2023-12-28T00:25:53;12.03;;;12.03;;
81006;SDS011;70472;47.592;17.640;2023-12-28T00:26:26;11.70;;;11.70;;
81006;SDS011;70472;47.592;17.640;2023-12-28T00:27:06;11.67;;;11.67;;
81006;SDS011;70472;47.592;17.640;2023-12-28T00:27:39;11.60;;;11.60;;
81006;SDS011;70472;47.592;17.640;2023-12-28T00:28:11;12.03;;;12.03;;
81006;SDS011;70472;47.592;17.640;2023-12-28T00:28:44;10.77;;;10.77;;
81006;SDS011;70472;47.592;17.640;2023-12-28T00:29:17;11.40;;;11.40;;
81006;SDS011;70472;47.592;17.640;2023-12-28T00:29:49;10.73;;;10.73;;
81006;SDS011;70472;47.592;17.640;2023-12-28T00:30:22;11.13;;;11.13;;
81006;SDS011;70472;47.592;17.640;2023-12-28T00:30:54;10.63;;;10.63;;
81006;SDS011;70472;47.592;17.640;2023-12-28T00:31:27;11.47;;;11.47;;
81006;SDS011;70472;47.592;17.640;2023-12-28T00:31:59;12.37;;;12.37;;
81006;SDS011;70472;47.592;17.640;2023-12-28T00:32:32;11.77;;;11.77;;
81006;SDS011;70472;47.592;17.640;2023-12-28T00:33:05;11.47;;;11.47;;
81006;SDS011;70472;47.592;17.640;2023-12-28T00:33:38;11.33;;;11.33;;
81006;SDS011;70472;47.592;17.640;2023-12-28T00:34:10;11.40;;;11.40;;
81006;SDS011;70472;47.592;17.640;2023-12-28T00:34:43;10.97;;;10.97;;
81006;SDS011;70472;47.592;17.640;2023-12-28T00:35:16;12.53;;;12.53;;
81006;SDS011;70472;47.592;17.640;2023-12-28T00:35:48;12.43;;;12.43;;
81006;SDS011;70472;47.592;17.640;2023-12-28T00:36:21;12.27;;;12.27;;
81006;SDS011;70472;47.592;17.640;2023-12-28T00:36:53;11.00;;;11.00;;
81006;SDS011;70472;47.592;17.640;2023-12-28T00:37:26;11.60;;;11.60;;
81006;SDS011;70472;47.592;17.640;2023-12-28T00:38:00;11.30;;;11.30;;
81006;SDS011;70472;47.592;17.640;2023-12-28T00:38:32;11.20;;;11.20;;
81006;SDS011;70472;47.592;17.640;2023-12-28T00:39:05;11.37;;;11.37;;
81006;SDS011;70472;47.592;17.640;2023-12-28T00:39:37;11.37;;;11.37;;
81006;SDS011;70472;47.592;17.640;2023-12-28T00:40:10;11.60;;;11.60;;
81006;SDS011;70472;47.592;17.640;2023-12-28T00:40:43;11.27;;;11.27;;
81006;SDS011;70472;47.592;17.640;2023-12-28T00:41:15;12.13;;;12.13;;
81006;SDS011;70472;47.592;17.640;2023-12-28T00:41:48;11.57;;;11.57;;
81006;SDS011;70472;47.592;17.640;2023-12-28T00:42:20;11.50;;;11.50;;
81006;SDS011;70472;47.592;17.640;2023-12-28T00:42:53;12.10;;;12.10;;
81006;SDS011;70472;47.592;17.640;2023-12-28T00:43:25;12.33;;;12.33;;
81006;SDS011;70472;47.592;17.640;2023-12-28T00:43:58;13.03;;;13.03;;
81006;SDS011;70472;47.592;17.640;2023-12-28T00:44:30;12.23;;;12.23;;
81006;SDS011;70472;47.592;17.640;2023-12-28T00:45:03;12.00;;;12.00;;
81006;SDS011;70472;47.592;17.640;2023-12-28T00:45:36;11.27;;;11.27;;
81006;SDS011;70472;47.592;17.640;2023-12-28T00:46:09;10.17;;;10.17;;
81006;SDS011;70472;47.592;17.640;2023-12-28T00:46:42;11.77;;;11.77;;
81006;SDS011;70472;47.592;17.640;2023-12-28T00:47:14;12.37;;;12.37;;
81006;SDS011;70472;47.592;17.640;2023-12-28T00:47:49;11.53;;;11.53;;
81006;SDS011;70472;47.592;17.640;2023-12-28T00:48:22;11.67;;;11.67;;
81006;SDS011;70472;47.592;17.640;2023-12-28T00:48:55;12.87;;;12.87;;
81006;SDS011;70472;47.592;17.640;2023-12-28T00:49:28;12.60;;;12.60;;
81006;SDS011;70472;47.592;17.640;2023-12-28T00:50:01;12.20;;;12.20;;
81006;SDS011;70472;47.592;17.640;2023-12-28T00:50:34;11.30;;;11.30;;
81006;SDS011;70472;47.592;17.640;2023-12-28T00:51:07;12.20;;;12.20;;
81006;SDS011;70472;47.592;17.640;2023-12-28T00:51:39;12.00;;;12.00;;
81006;SDS011;70472;47.592;17.640;2023-12-28T00:52:13;11.80;;;11.80;;
81006;SDS011;70472;47.592;17.640;2023-12-28T00:52:45;11.17;;;11.17;;
81006;SDS011;70472;47.592;17.640;2023-12-28T00:53:18;12.33;;;12.33;;
81006;SDS011;70472;47.592;17.640;2023-12-28T00:53:50;13.37;;;13.37;;
81006;SDS011;70472;47.592;17.640;2023-12-28T00:54:23;12.90;;;12.90;;
81006;SDS011;70472;47.592;17.640;2023-12-28T00:54:55;11.57;;;11.57;;
81006;SDS011;70472;47.592;17.640;2023-12-28T00:55:28;12.43;;;12.43;;
81006;SDS011;70472;47.592;17.640;2023-12-28T00:56:01;12.13;;;12.13;;
81006;SDS011;70472;47.592;17.640;2023-12-28T00:56:34;12.63;;;12.63;;
81006;SDS011;70472;47.592;17.640;2023-12-28T00:57:07;13.50;;;13.50;;
81006;SDS011;70472;47.592;17.640;2023-12-28T00:57:39;13.00;;;13.00;;
81006;SDS011;70472;47.592;17.640;2023-12-28T00:58:12;12.67;;;12.67;;
81006;SDS011;70472;47.592;17.640;2023-12-28T00:58:44;12.03;;;12.03;;
81006;SDS011;70472;47.592;17.640;2023-12-28T00:59:17;12.60;;;12.60;;
81006;SDS011;70472;47.592;17.640;2023-12-28T00:59:49;12.13;;;12.13;;
81006;SDS011;70472;47.592;17.640;2023-12-28T01:00:23;11.40;;;11.40;;
81006;SDS011;70472;47.592;17.640;2023-12-28T01:00:56;11.93;;;11.93;;
81006;SDS011;70472;47.592;17.640;2023-12-28T01:01:28;12.57;;;12.57;;
81006;SDS011;70472;47.592;17.640;2023-12-28T01:02:01;12.60;;;12.60;;
81006;SDS011;70472;47.592;17.640;2023-12-28T01:02:34;12.40;;;12.40;;
81006;SDS011;70472;47.592;17.640;2023-12-28T01:03:06;12.77;;;12.77;;
81006;SDS011;70472;47.592;17.640;2023-12-28T01:03:39;12.37;;;12.37;;
81006;SDS011;70472;47.592;17.640;2023-12-28T01:04:11;12.73;;;12.73;;
81006;SDS011;70472;47.592;17.640;2023-12-28T01:04:45;12.60;;;12.60;;
81006;SDS011;70472;47.592;17.640;2023-12-28T01:05:18;13.13;;;13.13;;
81006;SDS011;70472;47.592;17.640;2023-12-28T01:05:50;12.73;;;12.73;;
81006;SDS011;70472;47.592;17.640;2023-12-28T01:06:24;11.97;;;11.97;;
81006;SDS011;70472;47.592;17.640;2023-12-28T01:06:57;12.53;;;12.53;;
81006;SDS011;70472;47.592;17.640;2023-12-28T01:07:30;11.87;;;11.87;;
81006;SDS011;70472;47.592;17.640;2023-12-28T01:08:02;12.50;;;12.50;;
81006;SDS011;70472;47.592;17.640;2023-12-28T01:08:35;12.17;;;12.17;;
81006;SDS011;70472;47.592;17.640;2023-12-28T01:09:08;11.97;;;11.97;;
81006;SDS011;70472;47.592;17.640;2023-12-28T01:09:42;12.90;;;12.90;;
81006;SDS011;70472;47.592;17.640;2023-12-28T01:10:15;12.20;;;12.20;;
81006;SDS011;70472;47.592;17.640;2023-12-28T01:10:47;11.07;;;11.07;;
81006;SDS011;70472;47.592;17.640;2023-12-28T01:11:20;11.60;;;11.60;;
81006;SDS011;70472;47.592;17.640;2023-12-28T01:11:53;12.13;;;12.13;;
81006;SDS011;70472;47.592;17.640;2023-12-28T01:12:26;12.90;;;12.90;;
81006;SDS011;70472;47.592;17.640;2023-12-28T01:12:58;12.23;;;12.23;;
81006;SDS011;70472;47.592;17.640;2023-12-28T01:13:31;12.77;;;12.77;;
81006;SDS011;70472;47.592;17.640;2023-12-28T01:14:04;12.93;;;12.93;;
81006;SDS011;70472;47.592;17.640;2023-12-28T01:14:37;12.87;;;12.87;;
81006;SDS011;70472;47.592;17.640;2023-12-28T01:15:09;11.87;;;11.87;;
81006;SDS011;70472;47.592;17.640;2023-12-28T01:15:42;12.13;;;12.13;;
81006;SDS011;70472;47.592;17.640;2023-12-28T01:16:15;13.33;;;13.33;;
81006;SDS011;70472;47.592;17.640;2023-12-28T01:16:48;13.03;;;13.03;;
81006;SDS011;70472;47.592;17.640;2023-12-28T01:17:21;12.43;;;12.43;;
81006;SDS011;70472;47.592;17.640;2023-12-28T01:17:53;11.63;;;11.63;;
81006;SDS011;70472;47.592;17.640;2023-12-28T01:18:28;12.53;;;12.53;;
81006;SDS011;70472;47.592;17.640;2023-12-28T01:19:01;12.13;;;12.13;;
81006;SDS011;70472;47.592;17.640;2023-12-28T01:19:33;11.70;;;11.70;;
81006;SDS011;70472;47.592;17.640;2023-12-28T01:20:06;12.23;;;12.23;;
81006;SDS011;70472;47.592;17.640;2023-12-28T01:20:41;12.50;;;12.50;;
81006;SDS011;70472;47.592;17.640;2023-12-28T01:21:14;13.30;;;13.30;;
81006;SDS011;70472;47.592;17.640;2023-12-28T01:21:46;13.13;;;13.13;;
81006;SDS011;70472;47.592;17.640;2023-12-28T01:22:19;12.57;;;12.57;;
81006;SDS011;70472;47.592;17.640;2023-12-28T01:22:51;13.17;;;13.17;;
81006;SDS011;70472;47.592;17.640;2023-12-28T01:23:24;11.83;;;11.83;;
81006;SDS011;70472;47.592;17.640;2023-12-28T01:23:57;11.97;;;11.97;;
81006;SDS011;70472;47.592;17.640;2023-12-28T01:24:29;12.73;;;12.73;;
81006;SDS011;70472;47.592;17.640;2023-12-28T01:25:02;12.97;;;12.97;;
81006;SDS011;70472;47.592;17.640;2023-12-28T01:25:35;13.30;;;13.30;;
81006;SDS011;70472;47.592;17.640;2023-12-28T01:26:12;13.17;;;13.17;;
81006;SDS011;70472;47.592;17.640;2023-12-28T01:26:45;12.87;;;12.87;;
81006;SDS011;70472;47.592;17.640;2023-12-28T01:27:18;12.50;;;12.50;;
81006;SDS011;70472;47.592;17.640;2023-12-28T01:27:50;11.93;;;11.93;;
81006;SDS011;70472;47.592;17.640;2023-12-28T01:28:23;12.70;;;12.70;;
81006;SDS011;70472;47.592;17.640;2023-12-28T01:28:56;11.70;;;11.70;;
81006;SDS011;70472;47.592;17.640;2023-12-28T01:29:28;12.73;;;12.73;;
81006;SDS011;70472;47.592;17.640;2023-12-28T01:30:01;12.57;;;12.57;;
81006;SDS011;70472;47.592;17.640;2023-12-28T01:30:35;13.27;;;13.27;;
81006;SDS011;70472;47.592;17.640;2023-12-28T01:31:08;13.13;;;13.13;;
81006;SDS011;70472;47.592;17.640;2023-12-28T01:31:41;12.63;;;12.63;;
81006;SDS011;70472;47.592;17.640;2023-12-28T01:32:14;12.43;;;12.43;;
81006;SDS011;70472;47.592;17.640;2023-12-28T01:32:46;11.97;;;11.97;;
81006;SDS011;70472;47.592;17.640;2023-12-28T01:33:19;12.37;;;12.37;;
81006;SDS011;70472;47.592;17.640;2023-12-28T01:33:51;13.33;;;13.33;;
81006;SDS011;70472;47.592;17.640;2023-12-28T01:34:24;12.83;;;12.83;;
81006;SDS011;70472;47.592;17.640;2023-12-28T01:34:57;12.60;;;12.60;;
81006;SDS011;70472;47.592;17.640;2023-12-28T01:35:29;12.73;;;12.73;;
81006;SDS011;70472;47.592;17.640;2023-12-28T01:36:02;12.50;;;12.50;;
81006;SDS011;70472;47.592;17.640;2023-12-28T01:36:35;12.07;;;12.07;;
81006;SDS011;70472;47.592;17.640;2023-12-28T01:37:07;12.97;;;12.97;;
81006;SDS011;70472;47.592;17.640;2023-12-28T01:37:40;12.67;;;12.67;;
81006;SDS011;70472;47.592;17.640;2023-12-28T01:38:12;13.10;;;13.10;;
81006;SDS011;70472;47.592;17.640;2023-12-28T01:38:45;12.10;;;12.10;;
81006;SDS011;70472;47.592;17.640;2023-12-28T01:39:18;12.43;;;12.43;;
81006;SDS011;70472;47.592;17.640;2023-12-28T01:39:51;12.40;;;12.40;;
81006;SDS011;70472;47.592;17.640;2023-12-28T01:40:23;13.17;;;13.17;;
81006;SDS011;70472;47.592;17.640;2023-12-28T01:40:57;12.37;;;12.37;;
81006;SDS011;70472;47.592;17.640;2023-12-28T01:41:29;12.17;;;12.17;;
81006;SDS011;70472;47.592;17.640;2023-12-28T01:42:02;12.10;;;12.10;;
81006;SDS011;70472;47.592;17.640;2023-12-28T01:42:37;12.47;;;12.47;;
81006;SDS011;70472;47.592;17.640;2023-12-28T01:43:10;13.17;;;13.17;;
81006;SDS011;70472;47.592;17.640;2023-12-28T01:43:43;13.70;;;13.70;;
81006;SDS011;70472;47.592;17.640;2023-12-28T01:44:15;13.00;;;13.00;;
81006;SDS011;70472;47.592;17.640;2023-12-28T01:44:49;14.17;;;14.17;;
81006;SDS011;70472;47.592;17.640;2023-12-28T01:45:22;12.67;;;12.67;;
81006;SDS011;70472;47.592;17.640;2023-12-28T01:45:58;11.77;;;11.77;;
81006;SDS011;70472;47.592;17.640;2023-12-28T01:46:31;12.87;;;12.87;;
81006;SDS011;70472;47.592;17.640;2023-12-28T01:47:05;12.60;;;12.60;;
81006;SDS011;70472;47.592;17.640;2023-12-28T01:47:38;12.43;;;12.43;;
81006;SDS011;70472;47.592;17.640;2023-12-28T01:48:12;13.47;;;13.47;;
81006;SDS011;70472;47.592;17.640;2023-12-28T01:48:46;12.13;;;12.13;;
81006;SDS011;70472;47.592;17.640;2023-12-28T01:49:23;12.90;;;12.90;;
81006;SDS011;70472;47.592;17.640;2023-12-28T01:49:56;11.93;;;11.93;;
81006;SDS011;70472;47.592;17.640;2023-12-28T01:50:30;12.07;;;12.07;;
81006;SDS011;70472;47.592;17.640;2023-12-28T01:51:03;14.07;;;14.07;;
81006;SDS011;70472;47.592;17.640;2023-12-28T01:51:36;14.27;;;14.27;;
81006;SDS011;70472;47.592;17.640;2023-12-28T01:52:10;13.33;;;13.33;;
81006;SDS011;70472;47.592;17.640;2023-12-28T01:52:42;12.53;;;12.53;;
81006;SDS011;70472;47.592;17.640;2023-12-28T01:53:15;11.67;;;11.67;;
81006;SDS011;70472;47.592;17.640;2023-12-28T01:53:49;13.03;;;13.03;;
81006;SDS011;70472;47.592;17.640;2023-12-28T01:54:24;13.03;;;13.03;;
81006;SDS011;70472;47.592;17.640;2023-12-28T01:54:57;12.43;;;12.43;;
81006;SDS011;70472;47.592;17.640;2023-12-28T01:55:30;13.43;;;13.43;;
81006;SDS011;70472;47.592;17.640;2023-12-28T01:56:05;13.57;;;13.57;;
81006;SDS011;70472;47.592;17.640;2023-12-28T01:56:40;13.17;;;13.17;;
81006;SDS011;70472;47.592;17.640;2023-12-28T01:57:14;13.57;;;13.57;;
81006;SDS011;70472;47.592;17.640;2023-12-28T01:57:47;12.13;;;12.13;;
81006;SDS011;70472;47.592;17.640;2023-12-28T01:58:20;12.67;;;12.67;;
81006;SDS011;70472;47.592;17.640;2023-12-28T01:58:54;12.40;;;12.40;;
81006;SDS011;70472;47.592;17.640;2023-12-28T01:59:26;11.87;;;11.87;;
81006;SDS011;70472;47.592;17.640;2023-12-28T01:59:59;11.93;;;11.93;;
81006;SDS011;70472;47.592;17.640;2023-12-28T02:00:32;12.47;;;12.47;;
81006;SDS011;70472;47.592;17.640;2023-12-28T02:01:05;12.77;;;12.77;;
81006;SDS011;70472;47.592;17.640;2023-12-28T02:01:38;12.20;;;12.20;;
81006;SDS011;70472;47.592;17.640;2023-12-28T02:02:11;12.20;;;12.20;;
81006;SDS011;70472;47.592;17.640;2023-12-28T02:02:44;14.40;;;14.40;;
81006;SDS011;70472;47.592;17.640;2023-12-28T02:03:17;13.77;;;13.77;;
81006;SDS011;70472;47.592;17.640;2023-12-28T02:03:49;13.30;;;13.30;;
81006;SDS011;70472;47.592;17.640;2023-12-28T02:04:22;13.63;;;13.63;;
81006;SDS011;70472;47.592;17.640;2023-12-28T02:04:55;13.20;;;13.20;;
81006;SDS011;70472;47.592;17.640;2023-12-28T02:05:27;12.93;;;12.93;;
81006;SDS011;70472;47.592;17.640;2023-12-28T02:06:00;13.00;;;13.00;;
81006;SDS011;70472;47.592;17.640;2023-12-28T02:06:33;14.23;;;14.23;;
81006;SDS011;70472;47.592;17.640;2023-12-28T02:07:06;13.07;;;13.07;;
81006;SDS011;70472;47.592;17.640;2023-12-28T02:07:40;13.60;;;13.60;;
81006;SDS011;70472;47.592;17.640;2023-12-28T02:08:13;14.13;;;14.13;;
81006;SDS011;70472;47.592;17.640;2023-12-28T02:08:45;12.90;;;12.90;;
81006;SDS011;70472;47.592;17.640;2023-12-28T02:09:18;13.47;;;13.47;;
81006;SDS011;70472;47.592;17.640;2023-12-28T02:09:51;13.23;;;13.23;;
81006;SDS011;70472;47.592;17.640;2023-12-28T02:10:24;13.97;;;13.97;;
81006;SDS011;70472;47.592;17.640;2023-12-28T02:10:56;14.50;;;14.50;;
81006;SDS011;70472;47.592;17.640;2023-12-28T02:11:29;13.53;;;13.53;;
81006;SDS011;70472;47.592;17.640;2023-12-28T02:12:01;12.83;;;12.83;;
81006;SDS011;70472;47.592;17.640;2023-12-28T02:12:35;13.33;;;13.33;;
81006;SDS011;70472;47.592;17.640;2023-12-28T02:13:08;12.93;;;12.93;;
81006;SDS011;70472;47.592;17.640;2023-12-28T02:13:41;12.77;;;12.77;;
81006;SDS011;70472;47.592;17.640;2023-12-28T02:14:15;14.27;;;14.27;;
81006;SDS011;70472;47.592;17.640;2023-12-28T02:14:48;13.63;;;13.63;;
81006;SDS011;70472;47.592;17.640;2023-12-28T02:15:21;14.20;;;14.20;;
81006;SDS011;70472;47.592;17.640;2023-12-28T02:15:56;14.43;;;14.43;;
81006;SDS011;70472;47.592;17.640;2023-12-28T02:16:50;14.23;;;14.23;;
81006;SDS011;70472;47.592;17.640;2023-12-28T02:17:36;13.23;;;13.23;;
81006;SDS011;70472;47.592;17.640;2023-12-28T02:18:20;13.23;;;13.23;;
81006;SDS011;70472;47.592;17.640;2023-12-28T02:18:59;14.87;;;14.87;;
81006;SDS011;70472;47.592;17.640;2023-12-28T02:19:51;13.23;;;13.23;;
81006;SDS011;70472;47.592;17.640;2023-12-28T02:20:27;13.70;;;13.70;;
81006;SDS011;70472;47.592;17.640;2023-12-28T02:21:02;13.70;;;13.70;;
81006;SDS011;70472;47.592;17.640;2023-12-28T02:21:36;14.03;;;14.03;;
81006;SDS011;70472;47.592;17.640;2023-12-28T02:22:09;14.13;;;14.13;;
81006;SDS011;70472;47.592;17.640;2023-12-28T02:22:45;13.43;;;13.43;;
81006;SDS011;70472;47.592;17.640;2023-12-28T02:23:19;13.80;;;13.80;;
81006;SDS011;70472;47.592;17.640;2023-12-28T02:23:52;13.20;;;13.20;;
81006;SDS011;70472;47.592;17.640;2023-12-28T02:24:24;13.00;;;13.00;;
81006;SDS011;70472;47.592;17.640;2023-12-28T02:25:05;12.67;;;12.67;;
81006;SDS011;70472;47.592;17.640;2023-12-28T02:25:38;13.43;;;13.43;;
81006;SDS011;70472;47.592;17.640;2023-12-28T02:26:11;13.87;;;13.87;;
81006;SDS011;70472;47.592;17.640;2023-12-28T02:26:43;14.07;;;14.07;;
81006;SDS011;70472;47.592;17.640;2023-12-28T02:27:16;14.73;;;14.73;;
81006;SDS011;70472;47.592;17.640;2023-12-28T02:27:48;14.00;;;14.00;;
81006;SDS011;70472;47.592;17.640;2023-12-28T02:28:22;12.77;;;12.77;;
81006;SDS011;70472;47.592;17.640;2023-12-28T02:28:54;13.43;;;13.43;;
81006;SDS011;70472;47.592;17.640;2023-12-28T02:29:27;14.33;;;14.33;;
81006;SDS011;70472;47.592;17.640;2023-12-28T02:30:00;14.10;;;14.10;;
81006;SDS011;70472;47.592;17.640;2023-12-28T02:30:34;15.57;;;15.57;;
81006;SDS011;70472;47.592;17.640;2023-12-28T02:31:07;14.50;;;14.50;;
81006;SDS011;70472;47.592;17.640;2023-12-28T02:31:58;12.73;;;12.73;;
81006;SDS011;70472;47.592;17.640;2023-12-28T02:32:51;14.53;;;14.53;;
81006;SDS011;70472;47.592;17.640;2023-12-28T02:33:41;14.83;;;14.83;;
81006;SDS011;70472;47.592;17.640;2023-12-28T02:34:40;15.00;;;15.00;;
81006;SDS011;70472;47.592;17.640;2023-12-28T02:36:18;14.27;;;14.27;;
81006;SDS011;70472;47.592;17.640;2023-12-28T02:36:27;14.13;;;14.13;;
81006;SDS011;70472;47.592;17.640;2023-12-28T02:37:00;14.77;;;14.77;;
81006;SDS011;70472;47.592;17.640;2023-12-28T02:37:34;14.53;;;14.53;;
81006;SDS011;70472;47.592;17.640;2023-12-28T02:38:09;14.27;;;14.27;;
81006;SDS011;70472;47.592;17.640;2023-12-28T02:38:43;13.73;;;13.73;;
81006;SDS011;70472;47.592;17.640;2023-12-28T02:39:20;14.57;;;14.57;;
81006;SDS011;70472;47.592;17.640;2023-12-28T02:39:54;15.23;;;15.23;;
81006;SDS011;70472;47.592;17.640;2023-12-28T02:40:27;15.77;;;15.77;;
81006;SDS011;70472;47.592;17.640;2023-12-28T02:41:07;14.43;;;14.43;;
81006;SDS011;70472;47.592;17.640;2023-12-28T02:41:41;15.13;;;15.13;;
81006;SDS011;70472;47.592;17.640;2023-12-28T02:42:16;14.57;;;14.57;;
81006;SDS011;70472;47.592;17.640;2023-12-28T02:42:50;15.90;;;15.90;;
81006;SDS011;70472;47.592;17.640;2023-12-28T02:43:23;16.67;;;16.67;;
81006;SDS011;70472;47.592;17.640;2023-12-28T02:43:56;15.43;;;15.43;;
81006;SDS011;70472;47.592;17.640;2023-12-28T02:44:28;13.90;;;13.90;;
81006;SDS011;70472;47.592;17.640;2023-12-28T02:45:01;13.93;;;13.93;;
81006;SDS011;70472;47.592;17.640;2023-12-28T02:45:34;14.00;;;14.00;;
81006;SDS011;70472;47.592;17.640;2023-12-28T02:46:07;13.93;;;13.93;;
81006;SDS011;70472;47.592;17.640;2023-12-28T02:46:40;14.17;;;14.17;;
81006;SDS011;70472;47.592;17.640;2023-12-28T02:47:12;15.33;;;15.33;;
81006;SDS011;70472;47.592;17.640;2023-12-28T02:47:45;14.27;;;14.27;;
81006;SDS011;70472;47.592;17.640;2023-12-28T02:48:18;14.83;;;14.83;;
81006;SDS011;70472;47.592;17.640;2023-12-28T02:48:50;16.57;;;16.57;;
81006;SDS011;70472;47.592;17.640;2023-12-28T02:49:23;17.03;;;17.03;;
81006;SDS011;70472;47.592;17.640;2023-12-28T02:49:55;15.97;;;15.97;;
81006;SDS011;70472;47.592;17.640;2023-12-28T02:50:28;14.83;;;14.83;;
81006;SDS011;70472;47.592;17.640;2023-12-28T02:51:00;14.20;;;14.20;;
81006;SDS011;70472;47.592;17.640;2023-12-28T02:51:32;15.50;;;15.50;;
81006;SDS011;70472;47.592;17.640;2023-12-28T02:52:05;15.83;;;15.83;;
81006;SDS011;70472;47.592;17.640;2023-12-28T02:52:37;15.43;;;15.43;;
81006;SDS011;70472;47.592;17.640;2023-12-28T02:53:10;15.83;;;15.83;;
81006;SDS011;70472;47.592;17.640;2023-12-28T02:53:43;16.17;;;16.17;;
81006;SDS011;70472;47.592;17.640;2023-12-28T02:54:15;16.27;;;16.27;;
81006;SDS011;70472;47.592;17.640;2023-12-28T02:54:48;16.20;;;16.20;;
81006;SDS011;70472;47.592;17.640;2023-12-28T02:55:20;15.40;;;15.40;;
81006;SDS011;70472;47.592;17.640;2023-12-28T02:55:53;15.50;;;15.50;;
81006;SDS011;70472;47.592;17.640;2023-12-28T02:56:25;16.77;;;16.77;;
81006;SDS011;70472;47.592;17.640;2023-12-28T02:56:58;16.47;;;16.47;;
81006;SDS011;70472;47.592;17.640;2023-12-28T02:57:30;16.23;;;16.23;;
81006;SDS011;70472;47.592;17.640;2023-12-28T02:58:04;15.73;;;15.73;;
81006;SDS011;70472;47.592;17.640;2023-12-28T02:58:36;16.53;;;16.53;;
81006;SDS011;70472;47.592;17.640;2023-12-28T02:59:09;16.37;;;16.37;;
81006;SDS011;70472;47.592;17.640;2023-12-28T02:59:41;16.37;;;16.37;;
81006;SDS011;70472;47.592;17.640;2023-12-28T03:00:14;16.93;;;16.93;;
81006;SDS011;70472;47.592;17.640;2023-12-28T03:00:47;16.40;;;16.40;;
81006;SDS011;70472;47.592;17.640;2023-12-28T03:01:20;15.40;;;15.40;;
81006;SDS011;70472;47.592;17.640;2023-12-28T03:01:54;17.17;;;17.17;;
81006;SDS011;70472;47.592;17.640;2023-12-28T03:02:26;16.33;;;16.33;;
81006;SDS011;70472;47.592;17.640;2023-12-28T03:03:00;15.87;;;15.87;;
81006;SDS011;70472;47.592;17.640;2023-12-28T03:03:32;17.00;;;17.00;;
81006;SDS011;70472;47.592;17.640;2023-12-28T03:04:07;16.37;;;16.37;;
81006;SDS011;70472;47.592;17.640;2023-12-28T03:04:40;16.67;;;16.67;;
81006;SDS011;70472;47.592;17.640;2023-12-28T03:05:13;17.33;;;17.33;;
81006;SDS011;70472;47.592;17.640;2023-12-28T03:05:46;15.97;;;15.97;;
81006;SDS011;70472;47.592;17.640;2023-12-28T03:06:18;16.20;;;16.20;;
81006;SDS011;70472;47.592;17.640;2023-12-28T03:06:51;17.07;;;17.07;;
81006;SDS011;70472;47.592;17.640;2023-12-28T03:07:23;18.23;;;18.23;;
81006;SDS011;70472;47.592;17.640;2023-12-28T03:07:56;17.77;;;17.77;;
81006;SDS011;70472;47.592;17.640;2023-12-28T03:08:28;16.97;;;16.97;;
81006;SDS011;70472;47.592;17.640;2023-12-28T03:09:01;17.23;;;17.23;;
81006;SDS011;70472;47.592;17.640;2023-12-28T03:09:33;18.43;;;18.43;;
81006;SDS011;70472;47.592;17.640;2023-12-28T03:10:06;17.27;;;17.27;;
81006;SDS011;70472;47.592;17.640;2023-12-28T03:10:40;17.80;;;17.80;;
81006;SDS011;70472;47.592;17.640;2023-12-28T03:11:14;17.50;;;17.50;;
81006;SDS011;70472;47.592;17.640;2023-12-28T03:11:48;16.97;;;16.97;;
81006;SDS011;70472;47.592;17.640;2023-12-28T03:12:21;16.20;;;16.20;;
81006;SDS011;70472;47.592;17.640;2023-12-28T03:12:53;16.20;;;16.20;;
81006;SDS011;70472;47.592;17.640;2023-12-28T03:13:26;16.87;;;16.87;;